Time;durP1;ratioP1;P1;durP2;ratioP2;P2;SDS_P1;SDS_P2;PMS_P1;PMS_P2;Temp;Humidity;BMP_temperature;BMP_pressure;BME280_temperature;BME280_humidity;BME280_pressure;Samples;Min_cycle;Max_cycle;Signal;HPM_P1;HPM_P2
2022/03/27 00:02:22;;;;;;;33.90;17.58;;;13.60;43.00;;;;;;5039683;28;20060;-42
2022/03/27 00:04:50;;;;;;;33.63;18.42;;;13.60;43.00;;;;;;5038548;28;20057;-44
2022/03/27 00:07:17;;;;;;;32.67;17.02;;;13.60;43.10;;;;;;5040050;28;20056;-43
2022/03/27 00:09:45;;;;;;;32.22;17.48;;;13.50;43.20;;;;;;5040527;28;20060;-43
2022/03/27 00:12:14;;;;;;;41.15;20.27;;;13.50;43.20;;;;;;5038354;28;20053;-44
2022/03/27 00:14:41;;;;;;;27.60;16.80;;;13.50;43.50;;;;;;5039466;28;20053;-43
2022/03/27 00:17:09;;;;;;;32.17;17.00;;;13.40;43.40;;;;;;5040544;28;20061;-43
2022/03/27 00:19:37;;;;;;;25.63;14.60;;;13.40;43.60;;;;;;5041208;28;20041;-42
2022/03/27 00:22:05;;;;;;;31.88;17.48;;;13.40;43.50;;;;;;5037715;28;20060;-43
2022/03/27 00:24:32;;;;;;;26.50;16.05;;;13.30;43.60;;;;;;5039102;28;20512;-46
2022/03/27 00:27:00;;;;;;;23.38;14.27;;;13.30;43.60;;;;;;5040976;28;20053;-46
2022/03/27 00:29:29;;;;;;;24.60;14.98;;;13.30;43.60;;;;;;5041632;28;20056;-43
2022/03/27 00:31:56;;;;;;;24.10;15.38;;;13.20;43.70;;;;;;5040624;28;20061;-43
2022/03/27 00:34:24;;;;;;;23.65;14.07;;;13.30;43.80;;;;;;5041832;28;20064;-43
2022/03/27 00:36:51;;;;;;;28.20;15.13;;;13.20;43.80;;;;;;5043520;28;20545;-43
2022/03/27 00:39:19;;;;;;;32.63;17.63;;;13.20;43.70;;;;;;5045185;28;20063;-42
2022/03/27 00:41:47;;;;;;;27.67;16.67;;;13.10;43.70;;;;;;5043333;28;20049;-46
2022/03/27 00:44:15;;;;;;;29.85;17.42;;;13.10;43.90;;;;;;5042742;28;20056;-42
2022/03/27 00:46:44;;;;;;;26.40;15.77;;;13.10;44.00;;;;;;5044021;28;20064;-43
2022/03/27 00:49:12;;;;;;;29.92;16.05;;;13.00;44.00;;;;;;5044557;28;20381;-44
2022/03/27 00:51:39;;;;;;;25.83;15.95;;;13.00;44.00;;;;;;5039986;28;20045;-43
2022/03/27 00:54:07;;;;;;;25.13;15.18;;;13.00;44.00;;;;;;5041937;28;20061;-43
2022/03/27 00:56:34;;;;;;;24.52;14.43;;;13.00;44.10;;;;;;5044708;28;20512;-43
2022/03/27 00:59:02;;;;;;;23.95;15.02;;;12.90;44.30;;;;;;5044408;28;20103;-43
2022/03/27 01:01:35;;;;;;;29.55;17.73;;;12.90;44.30;;;;;;5042707;28;20049;-45
2022/03/27 01:04:04;;;;;;;28.88;18.02;;;12.90;44.60;;;;;;5040216;28;20060;-42
2022/03/27 01:06:34;;;;;;;38.45;19.98;;;12.80;44.50;;;;;;5043246;28;20063;-42
2022/03/27 01:11:49;;;;;;;30.48;17.67;;;12.80;44.70;;;;;;5049226;28;20063;-43
2022/03/27 01:14:22;;;;;;;31.80;18.75;;;12.80;44.60;;;;;;5040443;28;20420;-42
2022/03/27 01:16:58;;;;;;;30.65;18.08;;;12.70;44.70;;;;;;5043243;28;20531;-42
2022/03/27 01:19:28;;;;;;;32.38;18.05;;;12.70;44.80;;;;;;5042378;28;20401;-43
2022/03/27 01:22:00;;;;;;;30.85;18.10;;;12.60;44.70;;;;;;5042673;28;20068;-42
2022/03/27 01:24:28;;;;;;;32.67;18.83;;;12.60;44.80;;;;;;5040953;28;20428;-42
2022/03/27 01:26:55;;;;;;;29.10;17.08;;;12.60;44.90;;;;;;5044084;28;20060;-42
2022/03/27 01:29:23;;;;;;;27.25;16.23;;;12.60;45.60;;;;;;5044295;28;20497;-43
2022/03/27 01:31:53;;;;;;;24.30;14.80;;;12.50;45.10;;;;;;5041131;28;20060;-43
2022/03/27 01:34:21;;;;;;;30.02;16.58;;;12.50;45.20;;;;;;5042089;28;20053;-42
2022/03/27 01:36:49;;;;;;;24.33;14.30;;;12.50;45.20;;;;;;5041471;28;20608;-45
2022/03/27 01:39:18;;;;;;;26.50;15.23;;;12.50;45.30;;;;;;5042147;28;20048;-42
2022/03/27 01:41:46;;;;;;;29.20;18.05;;;12.50;45.40;;;;;;5041096;28;21089;-42
2022/03/27 01:44:16;;;;;;;35.17;17.98;;;12.50;45.60;;;;;;5040175;28;20057;-44
2022/03/27 01:46:44;;;;;;;30.30;17.38;;;12.40;45.60;;;;;;5042600;28;20436;-43
2022/03/27 01:49:15;;;;;;;24.98;16.27;;;12.40;45.70;;;;;;5043748;28;20056;-43
2022/03/27 01:51:43;;;;;;;25.95;16.27;;;12.40;45.60;;;;;;5038995;28;20052;-43
2022/03/27 01:54:11;;;;;;;33.00;17.15;;;12.30;45.60;;;;;;5040795;28;20064;-43
2022/03/27 01:56:40;;;;;;;24.83;15.40;;;12.30;45.60;;;;;;5043561;28;20523;-42
2022/03/27 01:59:09;;;;;;;29.95;17.95;;;12.20;45.60;;;;;;5043182;28;20068;-42
2022/03/27 02:01:38;;;;;;;31.23;17.52;;;12.20;45.80;;;;;;5041645;28;20444;-42
2022/03/27 02:04:06;;;;;;;25.17;15.13;;;12.20;45.80;;;;;;5039032;28;20989;-43
2022/03/27 02:06:37;;;;;;;28.55;15.43;;;12.20;45.90;;;;;;5041133;28;20063;-48
2022/03/27 02:09:04;;;;;;;27.25;16.02;;;12.10;45.90;;;;;;5043239;28;20493;-42
2022/03/27 02:11:32;;;;;;;27.02;16.85;;;12.10;45.90;;;;;;5040097;28;20064;-43
2022/03/27 02:14:01;;;;;;;25.52;16.17;;;12.00;45.90;;;;;;5041153;28;20053;-42
2022/03/27 02:16:29;;;;;;;31.95;17.27;;;12.10;46.00;;;;;;5040812;28;20496;-42
2022/03/27 02:18:56;;;;;;;23.83;15.48;;;12.00;46.10;;;;;;5041721;28;20045;-42
2022/03/27 02:21:24;;;;;;;26.85;15.27;;;12.00;46.10;;;;;;5041797;28;20048;-42
2022/03/27 02:23:51;;;;;;;27.80;16.33;;;12.00;46.20;;;;;;5038014;28;20057;-42
2022/03/27 02:26:19;;;;;;;27.65;16.10;;;12.00;46.30;;;;;;5042119;28;20056;-44
2022/03/27 02:28:46;;;;;;;27.55;16.38;;;11.90;46.30;;;;;;5042613;28;20053;-43
2022/03/27 02:31:15;;;;;;;22.67;13.82;;;12.00;46.40;;;;;;5038596;28;20060;-44
2022/03/27 02:33:43;;;;;;;22.55;14.95;;;11.90;46.50;;;;;;5039860;28;20053;-44
2022/03/27 02:36:10;;;;;;;25.17;13.98;;;11.90;46.50;;;;;;5039995;28;20417;-42
2022/03/27 02:38:38;;;;;;;27.05;15.43;;;11.90;46.50;;;;;;5041536;28;20076;-42
2022/03/27 02:41:06;;;;;;;29.45;15.50;;;11.80;46.90;;;;;;5040895;28;20057;-43
2022/03/27 02:43:38;;;;;;;26.63;15.32;;;11.80;46.50;;;;;;5041746;28;20049;-43
2022/03/27 02:46:06;;;;;;;25.30;15.30;;;11.80;46.60;;;;;;5039349;28;20049;-43
2022/03/27 02:48:37;;;;;;;28.38;16.80;;;11.70;46.70;;;;;;5040871;28;20057;-42
2022/03/27 02:51:05;;;;;;;31.80;17.08;;;11.70;46.80;;;;;;5036901;28;20069;-42
2022/03/27 02:53:32;;;;;;;30.92;17.08;;;11.70;46.90;;;;;;5040480;28;20437;-42
2022/03/27 02:56:00;;;;;;;26.23;16.05;;;11.70;47.10;;;;;;5039454;28;20432;-42
2022/03/27 02:58:28;;;;;;;26.27;15.98;;;11.60;47.10;;;;;;5042857;28;20056;-46
2022/03/27 03:00:56;;;;;;;30.88;17.33;;;11.60;47.20;;;;;;5038725;28;20060;-42
2022/03/27 03:03:24;;;;;;;28.67;16.55;;;11.60;47.30;;;;;;5042153;28;20076;-42
2022/03/27 03:05:53;;;;;;;27.75;15.85;;;11.60;47.40;;;;;;5040080;28;20068;-42
2022/03/27 03:08:21;;;;;;;26.15;15.00;;;11.50;47.40;;;;;;5041058;28;20060;-42
2022/03/27 03:10:48;;;;;;;25.25;15.07;;;11.50;47.40;;;;;;5040774;28;20060;-42
2022/03/27 03:13:16;;;;;;;22.90;14.82;;;11.50;47.50;;;;;;5039418;28;20068;-42
2022/03/27 03:15:44;;;;;;;23.35;14.30;;;11.40;47.50;;;;;;5039762;28;20057;-42
2022/03/27 03:18:12;;;;;;;29.13;17.95;;;11.40;47.60;;;;;;5042290;28;20493;-44
2022/03/27 03:20:40;;;;;;;31.90;18.17;;;11.40;47.70;;;;;;5042380;28;20056;-43
2022/03/27 03:23:10;;;;;;;29.58;17.20;;;11.40;48.00;;;;;;5040095;28;20049;-44
2022/03/27 03:25:37;;;;;;;28.90;17.13;;;11.40;47.90;;;;;;5038933;28;20060;-43
2022/03/27 03:28:05;;;;;;;30.98;15.38;;;11.30;47.80;;;;;;5042160;28;20057;-42
2022/03/27 03:30:33;;;;;;;26.55;16.63;;;11.30;47.80;;;;;;5038429;28;20053;-43
2022/03/27 03:33:00;;;;;;;27.58;15.90;;;11.30;47.80;;;;;;5036055;28;20369;-43
2022/03/27 03:35:28;;;;;;;30.00;16.50;;;11.30;47.80;;;;;;5035290;28;20497;-43
2022/03/27 03:37:55;;;;;;;28.30;17.17;;;11.30;48.00;;;;;;5038825;28;20116;-42
2022/03/27 03:40:24;;;;;;;27.50;15.52;;;11.30;48.00;;;;;;5041554;28;20063;-42
2022/03/27 03:42:52;;;;;;;26.55;15.32;;;11.20;48.00;;;;;;5040552;28;20056;-43
2022/03/27 03:45:19;;;;;;;31.40;18.55;;;11.20;47.90;;;;;;5037453;28;20049;-42
2022/03/27 03:47:47;;;;;;;29.63;17.52;;;11.20;48.10;;;;;;5041742;28;20056;-43
2022/03/27 03:50:15;;;;;;;32.30;18.20;;;11.20;48.20;;;;;;5040343;28;20049;-42
2022/03/27 03:52:42;;;;;;;30.33;16.85;;;11.10;48.20;;;;;;5035667;28;20049;-45
2022/03/27 03:55:10;;;;;;;27.65;16.70;;;11.10;48.10;;;;;;5037425;28;20049;-43
2022/03/27 03:57:39;;;;;;;25.63;15.25;;;11.10;48.20;;;;;;5039310;28;20049;-43
2022/03/27 04:00:08;;;;;;;30.13;17.70;;;11.10;48.30;;;;;;5039265;28;20064;-42
2022/03/27 04:02:36;;;;;;;30.02;17.40;;;11.10;48.40;;;;;;5041043;28;20488;-42
2022/03/27 04:05:04;;;;;;;30.13;16.33;;;11.10;48.40;;;;;;5042246;28;20052;-42
2022/03/27 04:07:31;;;;;;;28.75;16.35;;;11.00;48.90;;;;;;5041881;28;20060;-42
2022/03/27 04:09:59;;;;;;;28.27;15.85;;;11.00;48.40;;;;;;5042990;28;20045;-44
2022/03/27 04:12:26;;;;;;;27.80;17.67;;;11.00;48.50;;;;;;5044871;28;20127;-43
2022/03/27 04:14:55;;;;;;;32.08;16.50;;;11.00;48.50;;;;;;5044647;28;20057;-43
2022/03/27 04:17:23;;;;;;;28.35;16.92;;;10.90;48.50;;;;;;5038216;28;20052;-48
2022/03/27 04:19:50;;;;;;;26.90;16.85;;;11.00;48.60;;;;;;5044526;28;20060;-42
2022/03/27 04:22:18;;;;;;;34.50;19.25;;;10.90;48.60;;;;;;5042465;28;20045;-43
2022/03/27 04:24:45;;;;;;;31.25;17.67;;;10.90;48.70;;;;;;5043340;28;20511;-43
2022/03/27 04:27:13;;;;;;;31.25;16.70;;;10.90;48.70;;;;;;5045639;28;20060;-42
2022/03/27 04:29:40;;;;;;;26.63;16.88;;;10.90;48.60;;;;;;5044307;28;20049;-42
2022/03/27 04:32:10;;;;;;;28.48;16.13;;;10.90;48.70;;;;;;5043629;28;20083;-43
2022/03/27 04:34:37;;;;;;;32.35;17.42;;;10.90;48.70;;;;;;5044343;28;20064;-43
2022/03/27 04:37:05;;;;;;;30.25;18.10;;;10.80;48.70;;;;;;5043015;28;20053;-42
2022/03/27 04:39:33;;;;;;;36.15;20.00;;;10.80;48.60;;;;;;5045172;28;20064;-42
2022/03/27 04:42:00;;;;;;;29.98;17.92;;;10.80;48.80;;;;;;5044114;28;20061;-43
2022/03/27 04:44:28;;;;;;;29.33;17.75;;;10.80;48.80;;;;;;5043053;28;20393;-48
2022/03/27 04:46:55;;;;;;;28.67;16.48;;;10.80;48.80;;;;;;5041142;28;20078;-43
2022/03/27 04:49:24;;;;;;;28.92;16.85;;;10.80;48.80;;;;;;5043004;28;20052;-42
2022/03/27 04:51:52;;;;;;;27.95;16.77;;;10.70;48.90;;;;;;5027687;28;20052;-44
2022/03/27 04:54:19;;;;;;;28.30;16.63;;;10.70;48.90;;;;;;5037665;28;20715;-42
2022/03/27 04:56:47;;;;;;;30.38;18.35;;;10.70;48.90;;;;;;5036424;28;20493;-47
2022/03/27 04:59:14;;;;;;;26.40;16.27;;;10.70;48.90;;;;;;5043296;28;20128;-42
2022/03/27 05:01:42;;;;;;;33.53;18.50;;;10.70;48.90;;;;;;5039143;28;20059;-45
2022/03/27 05:04:10;;;;;;;31.63;17.23;;;10.60;48.90;;;;;;5038797;28;20052;-42
2022/03/27 05:06:39;;;;;;;29.63;17.60;;;10.60;49.00;;;;;;5043021;28;20057;-43
2022/03/27 05:09:07;;;;;;;28.38;16.70;;;10.60;49.00;;;;;;5043325;28;20484;-42
2022/03/27 05:11:34;;;;;;;29.90;17.55;;;10.60;49.00;;;;;;5043249;28;20053;-43
2022/03/27 05:14:02;;;;;;;35.97;19.75;;;10.60;49.10;;;;;;5041344;28;20057;-43
2022/03/27 05:16:29;;;;;;;32.22;17.77;;;10.50;49.20;;;;;;5041645;28;20056;-43
2022/03/27 05:18:57;;;;;;;27.20;16.90;;;10.50;49.30;;;;;;5042168;28;20057;-44
2022/03/27 05:21:25;;;;;;;30.45;18.05;;;10.50;49.30;;;;;;5042713;28;20136;-43
2022/03/27 05:23:54;;;;;;;40.03;20.00;;;10.40;49.30;;;;;;5042212;28;20049;-43
2022/03/27 05:26:21;;;;;;;32.42;18.40;;;10.40;49.40;;;;;;5044099;28;20053;-44
2022/03/27 05:28:49;;;;;;;32.08;18.83;;;10.40;49.40;;;;;;5042973;28;20485;-43
2022/03/27 05:31:17;;;;;;;31.02;18.45;;;10.40;49.50;;;;;;5042050;28;20064;-43
2022/03/27 05:33:44;;;;;;;32.28;18.73;;;10.40;49.50;;;;;;5041674;28;20351;-44
2022/03/27 05:36:12;;;;;;;31.45;18.95;;;10.40;49.60;;;;;;5043064;28;20531;-43
2022/03/27 05:38:40;;;;;;;33.28;18.80;;;10.40;49.70;;;;;;5042754;28;20048;-42
2022/03/27 05:41:11;;;;;;;36.63;19.50;;;10.40;49.70;;;;;;5038548;28;20064;-43
2022/03/27 05:43:38;;;;;;;36.38;19.23;;;10.40;49.80;;;;;;5042434;28;20393;-43
2022/03/27 05:46:06;;;;;;;35.67;20.73;;;10.30;49.90;;;;;;5041675;28;20062;-43
2022/03/27 05:48:33;;;;;;;34.70;19.35;;;10.40;50.00;;;;;;5043429;28;20049;-43
2022/03/27 05:51:01;;;;;;;35.13;19.42;;;10.40;50.10;;;;;;5041897;28;20078;-42
2022/03/27 05:53:28;;;;;;;33.20;19.05;;;10.40;50.10;;;;;;5041809;28;20516;-43
2022/03/27 05:55:57;;;;;;;35.00;19.33;;;10.40;50.20;;;;;;5042075;28;20060;-43
2022/03/27 05:58:25;;;;;;;30.73;18.65;;;10.40;50.30;;;;;;5041957;28;20049;-43
2022/03/27 06:00:53;;;;;;;34.05;19.38;;;10.40;50.40;;;;;;5041445;28;20048;-43
2022/03/27 06:03:22;;;;;;;38.35;20.58;;;10.40;50.40;;;;;;5042926;28;20053;-43
2022/03/27 06:05:51;;;;;;;35.72;19.95;;;10.40;50.40;;;;;;5042364;28;20060;-43
2022/03/27 06:08:19;;;;;;;35.20;19.83;;;10.40;50.50;;;;;;5041997;28;20049;-43
2022/03/27 06:10:46;;;;;;;33.15;18.60;;;10.50;50.70;;;;;;5042145;28;20049;-43
2022/03/27 06:13:14;;;;;;;37.38;19.75;;;10.50;50.80;;;;;;5043301;28;20052;-43
2022/03/27 06:15:43;;;;;;;35.22;19.45;;;10.50;51.00;;;;;;5040082;28;20053;-46
2022/03/27 06:18:11;;;;;;;31.02;18.30;;;10.60;51.10;;;;;;5041762;28;20488;-42
2022/03/27 06:20:40;;;;;;;30.48;17.13;;;10.60;51.10;;;;;;5043822;28;20064;-42
2022/03/27 06:23:08;;;;;;;31.70;18.23;;;10.60;51.10;;;;;;5041177;28;20068;-43
2022/03/27 06:25:38;;;;;;;33.38;19.40;;;10.60;51.10;;;;;;5041958;28;20059;-43
2022/03/27 06:28:06;;;;;;;28.88;17.02;;;10.70;51.30;;;;;;5041375;28;20088;-42
2022/03/27 06:30:33;;;;;;;33.40;18.75;;;10.70;51.40;;;;;;5040000;28;20052;-43
2022/03/27 06:33:04;;;;;;;29.50;17.75;;;10.80;51.60;;;;;;5042065;28;20079;-42
2022/03/27 06:35:32;;;;;;;28.90;17.25;;;10.90;51.60;;;;;;5036713;28;20389;-42
2022/03/27 06:37:59;;;;;;;32.03;17.50;;;10.90;51.50;;;;;;5037676;28;20060;-43
2022/03/27 06:40:27;;;;;;;31.38;18.13;;;10.90;51.40;;;;;;5039290;28;20052;-42
2022/03/27 06:42:54;;;;;;;33.20;19.70;;;11.00;51.40;;;;;;5038125;28;20386;-42
2022/03/27 06:45:23;;;;;;;27.23;17.83;;;11.10;51.40;;;;;;5036827;28;20053;-42
2022/03/27 06:47:51;;;;;;;26.05;17.05;;;11.10;51.30;;;;;;5038405;28;20061;-45
2022/03/27 06:50:22;;;;;;;29.00;17.80;;;11.10;51.30;;;;;;5039848;28;20060;-42
2022/03/27 06:52:52;;;;;;;28.73;17.92;;;11.20;51.30;;;;;;5041602;28;20057;-42
2022/03/27 06:55:21;;;;;;;34.03;17.90;;;11.20;51.30;;;;;;5037595;28;20068;-42
2022/03/27 06:57:49;;;;;;;32.00;17.77;;;11.30;51.40;;;;;;5040912;28;20061;-43
2022/03/27 07:03:04;;;;;;;31.63;19.17;;;11.40;51.60;;;;;;5041318;28;20428;-45
2022/03/27 07:05:36;;;;;;;32.22;18.85;;;11.40;51.50;;;;;;5038749;28;20048;-42
2022/03/27 07:08:06;;;;;;;35.28;18.38;;;11.50;51.50;;;;;;5039702;28;20048;-43
2022/03/27 07:10:34;;;;;;;31.60;18.23;;;11.50;51.50;;;;;;5041333;28;20045;-46
2022/03/27 07:13:02;;;;;;;30.52;19.00;;;11.60;51.40;;;;;;5040670;28;20386;-43
2022/03/27 07:15:31;;;;;;;35.67;19.20;;;11.60;51.40;;;;;;5038086;28;20049;-42
2022/03/27 07:17:59;;;;;;;31.40;18.63;;;11.70;51.60;;;;;;5040614;28;20064;-45
2022/03/27 07:20:28;;;;;;;33.00;19.00;;;11.80;52.00;;;;;;5038311;28;20045;-43
2022/03/27 07:23:00;;;;;;;33.75;19.50;;;11.80;52.00;;;;;;5037564;28;20493;-43
2022/03/27 07:25:29;;;;;;;34.42;20.58;;;11.80;52.00;;;;;;5037310;28;20076;-42
2022/03/27 07:27:57;;;;;;;35.78;20.90;;;11.90;52.00;;;;;;5038545;28;20053;-42
2022/03/27 07:30:25;;;;;;;32.40;19.27;;;11.90;52.00;;;;;;5041235;28;20693;-42
2022/03/27 07:32:53;;;;;;;33.72;19.50;;;12.00;51.90;;;;;;5041157;28;20068;-42
2022/03/27 07:35:21;;;;;;;32.38;18.90;;;12.10;51.70;;;;;;5038801;28;20068;-44
2022/03/27 07:37:51;;;;;;;32.58;19.20;;;12.10;51.60;;;;;;5039677;28;20523;-43
2022/03/27 07:40:20;;;;;;;39.00;22.33;;;12.20;51.50;;;;;;5042217;28;20326;-43
2022/03/27 07:42:50;;;;;;;42.25;22.77;;;12.20;51.60;;;;;;5039700;28;20485;-46
2022/03/27 07:45:19;;;;;;;41.83;21.73;;;12.20;51.60;;;;;;5042523;28;20060;-43
2022/03/27 07:47:48;;;;;;;39.28;21.60;;;12.30;51.60;;;;;;5043117;28;20417;-43
2022/03/27 07:50:16;;;;;;;37.25;21.67;;;12.30;51.40;;;;;;5045389;28;20053;-44
2022/03/27 07:52:44;;;;;;;37.03;20.48;;;12.30;51.30;;;;;;5044609;28;20633;-42
2022/03/27 07:55:13;;;;;;;34.95;20.65;;;12.30;51.30;;;;;;5043897;28;20076;-43
2022/03/27 07:57:43;;;;;;;38.67;21.02;;;12.30;51.40;;;;;;5041582;28;20435;-43
2022/03/27 08:00:12;;;;;;;34.75;21.33;;;12.30;51.60;;;;;;5043113;28;20049;-43
2022/03/27 08:02:40;;;;;;;33.75;19.90;;;12.40;51.80;;;;;;5042906;28;20064;-45
2022/03/27 08:05:09;;;;;;;37.92;21.83;;;12.40;51.90;;;;;;5041081;28;20056;-43
2022/03/27 08:07:37;;;;;;;38.22;21.50;;;12.40;52.20;;;;;;5042163;28;20049;-43
2022/03/27 08:10:06;;;;;;;34.10;20.20;;;12.40;52.40;;;;;;5044912;28;20435;-43
2022/03/27 08:12:34;;;;;;;32.10;19.52;;;12.40;52.50;;;;;;5027179;28;20489;-42
2022/03/27 08:15:04;;;;;;;35.58;21.15;;;12.50;52.40;;;;;;5043198;28;20605;-43
2022/03/27 08:17:32;;;;;;;36.33;20.88;;;12.60;52.60;;;;;;5044442;28;20060;-42
2022/03/27 08:20:00;;;;;;;36.22;21.08;;;12.60;52.70;;;;;;5044491;28;20045;-43
2022/03/27 08:22:27;;;;;;;37.35;20.60;;;12.70;52.80;;;;;;5044354;28;20049;-43
2022/03/27 08:24:55;;;;;;;41.22;21.85;;;12.70;53.10;;;;;;5043120;28;20048;-43
2022/03/27 08:27:21;;;;;;;31.00;20.13;;;12.80;53.30;;;;;;5045290;28;20053;-43
2022/03/27 08:29:50;;;;;;;31.88;19.45;;;12.90;53.30;;;;;;5045147;28;20049;-42
2022/03/27 08:32:19;;;;;;;32.85;20.27;;;13.00;53.30;;;;;;5045031;28;20080;-42
2022/03/27 08:34:48;;;;;;;35.88;19.55;;;13.00;53.60;;;;;;5043784;28;20060;-43
2022/03/27 08:37:18;;;;;;;31.95;20.48;;;13.10;53.50;;;;;;5043658;28;20064;-42
2022/03/27 08:39:46;;;;;;;32.50;19.02;;;13.20;53.40;;;;;;5044081;28;20049;-44
2022/03/27 08:42:16;;;;;;;31.52;18.63;;;13.20;53.50;;;;;;5045485;28;20045;-43
2022/03/27 08:44:43;;;;;;;29.33;17.33;;;13.30;53.60;;;;;;5042735;28;20404;-43
2022/03/27 08:47:17;;;;;;;40.13;19.63;;;13.40;53.60;;;;;;5045302;28;20053;-43
2022/03/27 08:49:54;;;;;;;36.60;18.85;;;13.50;54.00;;;;;;5044753;28;20402;-43
2022/03/27 08:52:49;;;;;;;34.17;20.33;;;13.60;54.00;;;;;;5042742;28;20063;-44
2022/03/27 08:55:20;;;;;;;26.73;17.25;;;13.70;54.30;;;;;;5032518;28;20049;-43
2022/03/27 08:57:55;;;;;;;36.88;21.08;;;13.80;53.70;;;;;;5044487;28;20056;-43
2022/03/27 09:00:24;;;;;;;38.70;19.52;;;13.80;53.60;;;;;;5042927;28;20052;-43
2022/03/27 09:02:52;;;;;;;35.13;19.80;;;13.90;53.50;;;;;;5042732;28;20052;-43
2022/03/27 09:05:22;;;;;;;36.20;20.33;;;14.00;53.30;;;;;;5043156;28;20059;-43
2022/03/27 09:07:50;;;;;;;32.97;19.50;;;14.10;53.30;;;;;;5041103;28;20057;-43
2022/03/27 09:10:18;;;;;;;36.83;21.05;;;14.20;53.10;;;;;;5044294;28;20394;-43
2022/03/27 09:12:46;;;;;;;32.90;19.90;;;14.20;53.00;;;;;;5043906;28;20503;-43
2022/03/27 09:15:16;;;;;;;35.35;21.30;;;14.30;53.10;;;;;;5042567;28;20418;-43
2022/03/27 09:18:06;;;;;;;33.00;20.02;;;14.40;53.50;;;;;;5044088;28;20053;-43
2022/03/27 09:20:41;;;;;;;34.95;20.27;;;14.40;53.40;;;;;;5039593;28;20487;-43
2022/03/27 09:23:21;;;;;;;31.98;19.73;;;14.50;53.20;;;;;;5043025;28;20060;-42
2022/03/27 09:25:57;;;;;;;34.65;20.45;;;14.60;53.10;;;;;;5043451;28;20048;-43
2022/03/27 09:28:31;;;;;;;32.45;19.58;;;14.70;53.00;;;;;;5044355;28;20052;-43
2022/03/27 09:31:01;;;;;;;32.50;18.70;;;14.80;52.80;;;;;;5044229;28;20950;-43
2022/03/27 09:33:49;;;;;;;27.98;18.63;;;14.90;52.80;;;;;;5044261;28;20057;-43
2022/03/27 09:36:21;;;;;;;30.67;19.23;;;15.00;52.70;;;;;;5037166;28;20057;-43
2022/03/27 09:39:07;;;;;;;32.60;18.50;;;15.10;52.50;;;;;;5043642;28;20067;-43
2022/03/27 09:41:45;;;;;;;34.13;20.55;;;15.20;52.50;;;;;;5042505;28;20068;-43
2022/03/27 09:44:15;;;;;;;36.10;21.38;;;15.30;52.50;;;;;;5042575;28;20498;-43
2022/03/27 09:46:50;;;;;;;35.22;19.92;;;15.40;52.40;;;;;;5043349;28;20057;-43
2022/03/27 09:49:19;;;;;;;36.28;19.40;;;15.50;52.30;;;;;;5043752;28;20446;-43
2022/03/27 09:52:01;;;;;;;30.63;19.08;;;15.50;52.00;;;;;;5041445;28;20057;-43
2022/03/27 09:54:44;;;;;;;35.15;19.55;;;15.60;51.70;;;;;;5041811;28;20049;-43
2022/03/27 09:57:18;;;;;;;31.92;18.80;;;15.70;51.80;;;;;;5042424;28;20060;-45
2022/03/27 09:59:46;;;;;;;;;;;15.80;51.50;;;;;;5042519;28;20068;-43
2022/03/27 10:02:18;;;;;;;30.73;19.52;;;15.80;51.30;;;;;;5040666;28;19932;-42
2022/03/27 10:05:03;;;;;;;32.90;20.60;;;15.90;51.50;;;;;;5040620;28;20067;-42
2022/03/27 10:07:37;;;;;;;32.90;20.50;;;16.00;51.10;;;;;;5041844;28;20069;-45
2022/03/27 10:10:08;;;;;;;35.15;20.70;;;16.10;51.20;;;;;;5042365;28;20072;-43
2022/03/27 10:12:37;;;;;;;31.55;17.65;;;16.10;50.70;;;;;;5042681;28;20409;-43
2022/03/27 10:15:08;;;;;;;35.13;20.17;;;16.20;50.40;;;;;;5041907;28;20412;-43
2022/03/27 10:17:37;;;;;;;32.90;19.45;;;16.30;50.70;;;;;;5042130;28;20075;-43
2022/03/27 10:20:08;;;;;;;33.95;20.15;;;16.30;50.50;;;;;;5041374;28;20052;-43
2022/03/27 10:22:40;;;;;;;33.22;19.45;;;16.40;50.40;;;;;;5041429;28;20060;-43
2022/03/27 10:25:10;;;;;;;34.00;21.00;;;16.50;50.30;;;;;;5041878;28;20493;-44
2022/03/27 10:27:39;;;;;;;28.75;17.90;;;16.50;50.10;;;;;;5042833;28;20060;-43
2022/03/27 10:30:08;;;;;;;32.80;19.00;;;16.60;49.90;;;;;;5043232;28;20056;-43
2022/03/27 10:32:37;;;;;;;28.60;18.00;;;16.60;49.80;;;;;;5042440;28;20112;-43
2022/03/27 10:35:18;;;;;;;31.33;18.38;;;16.70;49.60;;;;;;5039781;28;20424;-44
2022/03/27 10:37:58;;;;;;;28.10;16.55;;;16.70;49.70;;;;;;5039289;28;20076;-43
2022/03/27 10:40:35;;;;;;;27.33;17.15;;;16.80;49.60;;;;;;5040793;28;20053;-45
2022/03/27 10:43:11;;;;;;;32.80;19.67;;;16.90;49.40;;;;;;5042936;28;20068;-43
2022/03/27 10:45:38;;;;;;;28.73;18.15;;;16.90;48.80;;;;;;5040616;28;20416;-44
2022/03/27 10:48:14;;;;;;;28.58;17.10;;;17.00;49.10;;;;;;5042338;28;20053;-43
2022/03/27 10:50:52;;;;;;;32.10;18.30;;;17.00;48.80;;;;;;5042673;28;20053;-44
2022/03/27 10:53:24;;;;;;;26.50;16.02;;;17.10;49.00;;;;;;5041797;28;20060;-43
2022/03/27 10:55:54;;;;;;;25.45;15.48;;;17.10;48.70;;;;;;5041225;28;20076;-43
2022/03/27 10:58:33;;;;;;;24.42;14.93;;;17.20;48.40;;;;;;5042413;28;20053;-43
2022/03/27 11:01:03;;;;;;;27.05;16.35;;;17.30;48.10;;;;;;5041141;28;20057;-43
2022/03/27 11:04:05;;;;;;;28.33;19.23;;;17.30;48.00;;;;;;5041950;28;20052;-43
2022/03/27 11:06:35;;;;;;;24.85;16.00;;;17.30;48.20;;;;;;4998913;28;20057;-43
2022/03/27 11:09:05;;;;;;;27.85;17.70;;;17.40;48.00;;;;;;5042199;28;20079;-43
2022/03/27 11:12:04;;;;;;;24.92;15.77;;;17.40;48.10;;;;;;5042534;28;20064;-43
2022/03/27 11:15:02;;;;;;;25.80;15.85;;;17.50;48.20;;;;;;5039329;28;20053;-43
2022/03/27 11:17:41;;;;;;;23.75;15.00;;;17.50;47.40;;;;;;5041393;28;20060;-43
2022/03/27 11:20:11;;;;;;;22.52;14.82;;;17.50;47.80;;;;;;5041023;28;20382;-43
2022/03/27 11:22:52;;;;;;;25.75;14.35;;;17.60;47.80;;;;;;5040889;28;20049;-43
2022/03/27 11:25:46;;;;;;;26.52;16.10;;;17.60;47.80;;;;;;5040192;28;20053;-48
2022/03/27 11:28:15;;;;;;;26.27;16.05;;;17.70;47.20;;;;;;5042076;28;20140;-44
2022/03/27 11:31:22;;;;;;;27.83;16.13;;;17.80;47.40;;;;;;5042348;28;20060;-43
2022/03/27 11:34:17;;;;;;;27.30;16.42;;;17.80;46.90;;;;;;5034368;28;20128;-45
2022/03/27 11:40:39;;;;;;;27.02;15.85;;;17.90;46.90;;;;;;5058871;28;20040;-42
2022/03/27 11:43:31;;;;;;;21.63;15.18;;;18.00;46.60;;;;;;5039650;28;20045;-44
2022/03/27 11:46:00;;;;;;;21.38;14.35;;;18.00;46.60;;;;;;5039650;28;20420;-43
2022/03/27 11:48:28;;;;;;;23.08;14.88;;;18.00;46.40;;;;;;5036742;28;20415;-43
2022/03/27 11:50:56;;;;;;;22.75;14.43;;;18.10;46.70;;;;;;5039358;28;20484;-43
2022/03/27 11:53:31;;;;;;;26.58;15.23;;;18.10;46.50;;;;;;5038163;28;20056;-43
2022/03/27 11:56:08;;;;;;;21.15;13.30;;;18.20;46.20;;;;;;5039167;28;20049;-43
2022/03/27 11:58:37;;;;;;;25.90;15.02;;;18.20;46.00;;;;;;5039599;28;20068;-43
2022/03/27 12:01:06;;;;;;;22.75;14.25;;;18.20;45.90;;;;;;5038925;28;20049;-45
2022/03/27 12:03:33;;;;;;;23.98;15.27;;;18.20;46.40;;;;;;5040401;28;20053;-44
2022/03/27 12:06:08;;;;;;;20.10;14.57;;;18.30;46.20;;;;;;5040051;28;21500;-44
2022/03/27 12:08:37;;;;;;;22.40;14.18;;;18.30;46.20;;;;;;5040602;28;20064;-43
2022/03/27 12:11:08;;;;;;;19.67;14.18;;;18.40;46.20;;;;;;5040217;28;20045;-43
2022/03/27 12:13:37;;;;;;;26.90;16.40;;;18.40;46.10;;;;;;5040843;28;20400;-44
2022/03/27 12:16:05;;;;;;;23.48;14.93;;;18.50;45.50;;;;;;5038857;28;20057;-43
2022/03/27 12:18:34;;;;;;;19.10;13.75;;;18.50;45.40;;;;;;5040523;28;20064;-43
2022/03/27 12:21:04;;;;;;;24.45;15.48;;;18.50;45.70;;;;;;5040422;28;20108;-43
2022/03/27 12:23:33;;;;;;;22.65;14.60;;;18.60;45.90;;;;;;5039129;28;20602;-43
2022/03/27 12:31:54;;;;;;;21.00;13.48;;;18.70;45.10;;;;;;5049181;28;20519;-45
2022/03/27 12:34:22;;;;;;;22.70;14.57;;;18.70;45.40;;;;;;5039912;28;20063;-45
2022/03/27 12:37:11;;;;;;;22.52;14.07;;;18.80;45.20;;;;;;5043719;28;20083;-43
2022/03/27 12:39:40;;;;;;;21.10;12.95;;;18.80;45.20;;;;;;5043941;28;20053;-45
2022/03/27 12:42:29;;;;;;;22.95;14.45;;;18.80;45.10;;;;;;5043665;28;20056;-43
2022/03/27 12:45:02;;;;;;;18.92;12.75;;;18.90;44.70;;;;;;5040817;28;20396;-45
2022/03/27 12:47:35;;;;;;;26.23;15.10;;;18.90;44.80;;;;;;5041875;28;20053;-43
2022/03/27 12:50:03;;;;;;;25.13;14.00;;;18.90;44.80;;;;;;5042157;28;20500;-43
2022/03/27 12:52:31;;;;;;;18.98;12.82;;;19.00;44.90;;;;;;5038601;28;20049;-42
2022/03/27 12:55:00;;;;;;;18.17;12.25;;;19.00;45.30;;;;;;5041238;28;20064;-44
2022/03/27 12:57:52;;;;;;;19.63;12.40;;;19.10;45.00;;;;;;5042253;28;20076;-43
2022/03/27 13:00:22;;;;;;;17.40;11.50;;;19.10;44.80;;;;;;5041528;28;20052;-45